Urbana, Missouri
Current Conditions -  °F | °C
As of 3:35 PM on Monday 24 Nov 2014 (Local Time) from KH21 Reporting Station
Broken Clouds Broken Clouds  
Wind Chill: 38°   Ceiling: 4600
Heat Index: 45°   Visibility: 10mi
Dew Point: 30°   Wind: 14mph
Humidity: 57%   Direction: 260°W
Pressure: 29.84"   Gusts: NA
Location:  37.84°N, 93.17°W
Report Text: KH21 242135Z AUTO 26012KT 10SM BKN046 07/M01 A2984 RMK AO2
Loading
Personal Weather Stations






























Interactive Weather Map New forecast layout! Learn more

10-Day Weather Forecast

Advertisements
Track Severe Weather on mobile